Time;durP1;ratioP1;P1;durP2;ratioP2;P2;SDS_P1;SDS_P2;PMS_P1;PMS_P2;Temp;Humidity;BMP_temperature;BMP_pressure;BME280_temperature;BME280_humidity;BME280_pressure;Samples;Min_cycle;Max_cycle;Signal;HPM_P1;HPM_P2
2021/07/21 00:00:31;;;;;;;17.33;9.73;;;25.70;75.20;;;;;;4268020;27;20509;-77
2021/07/21 00:02:34;;;;;;;16.40;10.32;;;25.70;75.40;;;;;;4255518;27;20058;-76
2021/07/21 00:04:40;;;;;;;18.23;10.35;;;25.60;75.80;;;;;;4272309;27;20455;-77
2021/07/21 00:06:43;;;;;;;19.90;10.90;;;25.60;75.90;;;;;;4251701;27;20059;-78
2021/07/21 00:08:46;;;;;;;20.27;10.45;;;25.50;75.90;;;;;;4264507;27;20043;-75
2021/07/21 00:13:26;;;;;;;25.13;10.13;;;25.50;76.10;;;;;;4249968;27;20050;-75
2021/07/21 00:13:28;;;;;;;21.08;10.32;;;25.60;75.90;;;;;;4266078;27;20122;-76
2021/07/21 00:15:35;;;;;;;18.73;11.07;;;25.60;76.00;;;;;;4248470;28;20106;-77
2021/07/21 00:17:38;;;;;;;17.92;10.23;;;25.50;76.20;;;;;;4245869;28;20552;-77
2021/07/21 00:22:08;;;;;;;20.73;10.18;;;25.30;76.90;;;;;;4250805;27;20099;-77
2021/07/21 00:24:12;;;;;;;17.75;11.00;;;25.30;76.90;;;;;;4250125;27;20051;-77
2021/07/21 00:26:15;;;;;;;20.77;11.10;;;25.40;77.30;;;;;;4252618;27;20415;-77
2021/07/21 00:28:19;;;;;;;23.90;11.02;;;25.40;76.80;;;;;;4237389;28;20047;-77
2021/07/21 00:30:22;;;;;;;22.23;10.13;;;25.50;76.50;;;;;;4256215;27;20285;-76
2021/07/21 00:32:25;;;;;;;21.40;10.30;;;25.50;76.70;;;;;;4262024;27;20051;-77
2021/07/21 00:34:28;;;;;;;20.85;10.57;;;25.30;77.50;;;;;;4248286;28;20143;-78
2021/07/21 00:36:33;;;;;;;16.13;10.73;;;25.20;77.60;;;;;;4265045;27;20063;-77
2021/07/21 00:38:36;;;;;;;18.52;10.05;;;25.30;77.50;;;;;;4267227;27;20044;-76
2021/07/21 00:40:39;;;;;;;16.65;10.45;;;25.30;77.00;;;;;;4264115;27;20258;-78
2021/07/21 00:42:43;;;;;;;20.42;10.07;;;25.40;76.70;;;;;;4256337;27;20054;-78
2021/07/21 00:44:46;;;;;;;21.98;10.98;;;25.50;76.50;;;;;;4236172;28;20148;-76
2021/07/21 00:46:49;;;;;;;17.02;10.70;;;25.50;76.00;;;;;;4270420;27;20126;-78
2021/07/21 00:48:52;;;;;;;23.52;10.75;;;25.50;76.00;;;;;;4258436;27;20053;-77
2021/07/21 00:50:56;;;;;;;22.10;11.30;;;25.60;76.00;;;;;;4266558;27;20076;-77
2021/07/21 00:53:01;;;;;;;21.08;11.52;;;25.50;76.20;;;;;;4266235;27;20057;-78
2021/07/21 00:55:06;;;;;;;20.38;11.25;;;25.30;77.30;;;;;;4266547;27;20054;-76
2021/07/21 00:57:09;;;;;;;;;;;25.30;77.40;;;;;;4266545;27;20046;-78
2021/07/21 00:59:13;;;;;;;20.80;10.65;;;25.30;77.40;;;;;;4268549;27;20382;-76
2021/07/21 01:01:16;;;;;;;20.63;11.38;;;25.30;76.80;;;;;;4267741;27;20055;-77
2021/07/21 01:03:19;;;;;;;18.55;11.00;;;25.40;76.50;;;;;;4271039;27;20129;-76
2021/07/21 01:05:26;;;;;;;21.35;10.82;;;25.40;76.50;;;;;;4271446;27;20047;-77
2021/07/21 01:07:29;;;;;;;14.98;10.60;;;25.40;76.30;;;;;;4271644;27;20042;-78
2021/07/21 01:09:36;;;;;;;17.27;10.45;;;25.50;76.00;;;;;;4243525;27;20170;-77
2021/07/21 01:11:46;;;;;;;18.27;11.10;;;25.40;77.30;;;;;;4235981;28;20062;-76
2021/07/21 01:13:55;;;;;;;20.92;10.77;;;25.30;76.80;;;;;;4253273;27;20055;-77
2021/07/21 01:16:05;;;;;;;20.40;11.50;;;25.20;77.10;;;;;;4253928;27;20066;-77
2021/07/21 01:18:12;;;;;;;16.45;10.45;;;25.20;77.00;;;;;;4251596;27;20055;-77
2021/07/21 01:20:38;;;;;;;20.60;10.18;;;25.20;77.00;;;;;;4252923;27;20132;-77
2021/07/21 01:22:44;;;;;;;15.77;10.98;;;25.20;76.70;;;;;;4210161;27;20059;-76
2021/07/21 01:25:05;;;;;;;21.25;11.23;;;25.30;77.00;;;;;;4235293;27;20441;-76
2021/07/21 01:27:18;;;;;;;16.30;11.68;;;25.30;77.60;;;;;;4251309;27;20055;-78
2021/07/21 01:29:24;;;;;;;15.73;10.82;;;25.20;78.60;;;;;;4260863;27;20107;-78
2021/07/21 01:31:33;;;;;;;19.92;10.95;;;25.20;78.90;;;;;;4265506;27;20110;-77
2021/07/21 01:33:38;;;;;;;21.08;11.60;;;25.10;78.70;;;;;;4267543;27;20282;-76
2021/07/21 01:35:46;;;;;;;18.23;10.65;;;25.00;78.90;;;;;;4266519;27;20123;-76
2021/07/21 01:37:54;;;;;;;18.60;11.20;;;25.00;78.20;;;;;;4246117;28;20048;-76
2021/07/21 01:40:00;;;;;;;18.95;10.80;;;25.00;78.20;;;;;;4263423;27;20102;-76
2021/07/21 01:42:07;;;;;;;15.68;10.95;;;25.10;78.30;;;;;;4275531;27;20093;-77
2021/07/21 01:44:14;;;;;;;18.48;12.20;;;25.10;78.40;;;;;;4279860;27;20052;-76
2021/07/21 01:46:21;;;;;;;22.58;11.50;;;25.10;78.10;;;;;;4271238;27;20047;-76
2021/07/21 01:48:25;;;;;;;19.63;11.48;;;25.00;78.00;;;;;;4249147;27;20047;-78
2021/07/21 01:50:30;;;;;;;25.13;11.35;;;25.00;78.40;;;;;;4269249;27;20146;-79
2021/07/21 01:52:33;;;;;;;18.10;12.02;;;25.00;78.60;;;;;;4248234;27;20082;-79
2021/07/21 01:54:38;;;;;;;25.65;11.27;;;25.00;77.70;;;;;;4265983;27;20058;-77
2021/07/21 01:56:41;;;;;;;;;;;25.00;78.20;;;;;;4267537;27;20057;-79
2021/07/21 01:58:46;;;;;;;19.90;11.55;;;25.00;78.40;;;;;;4267549;27;19919;-79
2021/07/21 02:00:51;;;;;;;16.55;11.18;;;24.90;79.10;;;;;;4268097;27;20422;-75
2021/07/21 02:02:56;;;;;;;17.73;11.18;;;24.90;78.20;;;;;;4270087;27;20051;-77
2021/07/21 02:05:01;;;;;;;17.88;11.05;;;24.80;78.50;;;;;;4268009;27;20145;-76
2021/07/21 02:07:07;;;;;;;17.48;11.60;;;24.80;79.20;;;;;;4266091;27;20049;-76
2021/07/21 02:09:11;;;;;;;18.25;11.50;;;24.80;79.10;;;;;;4265420;27;20057;-76
2021/07/21 02:11:14;;;;;;;17.67;12.30;;;24.70;79.70;;;;;;4264946;27;20064;-75
2021/07/21 02:13:18;;;;;;;19.88;11.55;;;24.60;80.20;;;;;;4265318;27;20039;-77
2021/07/21 02:15:23;;;;;;;21.67;12.05;;;24.60;79.50;;;;;;4246918;27;20053;-77
2021/07/21 02:17:28;;;;;;;;;;;24.60;79.90;;;;;;4265656;27;20503;-78
2021/07/21 02:19:32;;;;;;;17.55;11.35;;;24.60;79.70;;;;;;4264685;27;19925;-77
2021/07/21 02:21:36;;;;;;;;;;;24.60;79.00;;;;;;4265529;27;20126;-77
2021/07/21 02:23:40;;;;;;;20.10;12.30;;;24.70;78.90;;;;;;4265351;27;19919;-77
2021/07/21 02:25:43;;;;;;;21.13;11.40;;;24.70;79.20;;;;;;4246860;27;20051;-78
2021/07/21 02:27:46;;;;;;;23.02;12.13;;;24.70;78.90;;;;;;4266068;27;20046;-76
2021/07/21 02:29:51;;;;;;;20.98;13.38;;;24.70;78.70;;;;;;4267555;27;20054;-78
2021/07/21 02:32:03;;;;;;;24.23;12.63;;;24.60;80.20;;;;;;4246890;27;20146;-76
2021/07/21 02:34:07;;;;;;;25.38;13.07;;;24.40;81.00;;;;;;4248426;27;20051;-75
2021/07/21 02:36:14;;;;;;;20.73;12.13;;;24.30;81.30;;;;;;4274604;27;20054;-76
2021/07/21 02:38:17;;;;;;;22.17;12.75;;;24.20;81.80;;;;;;4255977;27;20047;-78
2021/07/21 02:40:20;;;;;;;21.88;12.57;;;24.10;82.10;;;;;;4275430;27;20049;-76
2021/07/21 02:42:23;;;;;;;18.02;12.68;;;24.20;82.00;;;;;;4271037;27;20045;-77
2021/07/21 02:44:26;;;;;;;19.63;12.82;;;24.20;81.60;;;;;;4268471;27;20050;-78
2021/07/21 02:46:30;;;;;;;25.92;12.95;;;24.20;81.00;;;;;;4265115;27;20061;-76
2021/07/21 02:48:33;;;;;;;18.27;12.93;;;24.30;81.20;;;;;;4246671;27;20051;-78
2021/07/21 02:50:39;;;;;;;21.45;12.85;;;24.20;82.00;;;;;;4265151;27;20054;-77
2021/07/21 02:52:58;;;;;;;19.00;12.10;;;24.10;82.60;;;;;;4267751;27;20054;-75
2021/07/21 02:55:06;;;;;;;21.80;13.50;;;24.10;82.90;;;;;;4280815;27;20061;-78
2021/07/21 02:57:15;;;;;;;18.08;12.07;;;23.90;83.10;;;;;;4272012;27;20058;-79
2021/07/21 02:59:23;;;;;;;26.80;13.25;;;24.00;83.30;;;;;;4265096;27;20043;-77
2021/07/21 03:01:26;;;;;;;18.63;12.65;;;24.00;83.50;;;;;;4265106;27;20054;-77
2021/07/21 03:03:33;;;;;;;22.63;13.57;;;24.00;83.80;;;;;;4265069;27;20131;-77
2021/07/21 03:05:38;;;;;;;23.27;12.88;;;23.90;84.10;;;;;;4264902;27;20132;-76
2021/07/21 03:07:46;;;;;;;19.67;12.63;;;24.00;83.80;;;;;;4270658;27;20821;-75
2021/07/21 03:09:52;;;;;;;26.63;13.40;;;23.90;83.80;;;;;;4270003;27;20133;-77
2021/07/21 03:11:59;;;;;;;20.83;12.90;;;23.90;84.30;;;;;;4271899;27;20099;-76
2021/07/21 03:14:04;;;;;;;21.98;13.52;;;23.80;84.70;;;;;;4270076;27;20050;-77
2021/07/21 03:16:09;;;;;;;19.38;12.63;;;23.80;84.40;;;;;;4272984;27;20058;-78
2021/07/21 03:18:15;;;;;;;21.55;14.05;;;23.80;84.80;;;;;;4255626;27;20057;-77
2021/07/21 03:20:19;;;;;;;27.25;13.23;;;23.70;85.50;;;;;;4270692;27;20138;-78
2021/07/21 03:22:26;;;;;;;19.02;13.15;;;23.60;86.10;;;;;;4272108;27;20103;-78
2021/07/21 03:24:29;;;;;;;23.75;14.55;;;23.70;85.90;;;;;;4250183;27;20536;-78
2021/07/21 03:26:33;;;;;;;28.08;13.68;;;23.60;86.40;;;;;;4268356;27;20047;-78
2021/07/21 03:28:38;;;;;;;27.58;14.25;;;23.50;86.60;;;;;;4267714;27;20087;-78
2021/07/21 03:30:42;;;;;;;22.00;13.90;;;23.40;87.00;;;;;;4268386;27;20053;-78
2021/07/21 03:32:46;;;;;;;20.45;13.75;;;23.40;87.00;;;;;;4268598;27;20050;-77
2021/07/21 03:34:50;;;;;;;23.08;14.27;;;23.40;87.00;;;;;;4267834;27;20057;-77
2021/07/21 03:36:56;;;;;;;19.08;13.30;;;23.50;86.90;;;;;;4249607;27;20054;-78
2021/07/21 03:39:01;;;;;;;24.63;14.23;;;23.40;87.20;;;;;;4267395;27;20054;-77
2021/07/21 03:41:04;;;;;;;25.48;14.48;;;23.50;87.00;;;;;;4270617;27;20061;-77
2021/07/21 03:43:08;;;;;;;26.33;15.13;;;23.50;86.70;;;;;;4271316;27;20051;-77
2021/07/21 03:45:13;;;;;;;22.48;13.70;;;23.60;86.80;;;;;;4270509;27;20057;-78
2021/07/21 03:47:17;;;;;;;21.70;14.35;;;23.60;85.80;;;;;;4271338;27;20415;-78
2021/07/21 03:49:20;;;;;;;20.98;13.98;;;23.70;85.70;;;;;;4272292;27;20740;-78
2021/07/21 03:51:24;;;;;;;26.25;14.25;;;23.70;86.00;;;;;;4254024;27;20114;-78
2021/07/21 03:53:31;;;;;;;24.85;14.25;;;23.80;85.40;;;;;;4272549;27;20055;-78
2021/07/21 03:55:38;;;;;;;21.20;14.05;;;23.70;86.20;;;;;;4272013;27;20050;-79
2021/07/21 03:57:42;;;;;;;23.55;14.95;;;23.70;86.60;;;;;;4253505;27;20058;-78
2021/07/21 03:59:46;;;;;;;21.85;15.18;;;23.60;86.40;;;;;;4271608;27;20046;-78
2021/07/21 04:01:51;;;;;;;24.60;14.63;;;23.50;86.60;;;;;;4270704;27;20122;-78
2021/07/21 04:03:56;;;;;;;28.92;15.38;;;23.60;87.40;;;;;;4252326;27;20047;-77
2021/07/21 04:06:00;;;;;;;28.02;15.98;;;23.50;87.70;;;;;;4269409;27;20459;-77
2021/07/21 04:08:04;;;;;;;26.65;14.38;;;23.40;87.70;;;;;;4266449;27;20054;-78
2021/07/21 04:10:10;;;;;;;26.37;14.67;;;23.50;86.60;;;;;;4249110;27;20088;-79
2021/07/21 04:12:15;;;;;;;23.83;15.13;;;23.50;87.70;;;;;;4267484;27;20057;-76
2021/07/21 04:14:21;;;;;;;25.17;14.65;;;23.60;87.00;;;;;;4267260;27;20049;-78
2021/07/21 04:16:24;;;;;;;23.60;15.48;;;23.60;86.40;;;;;;4267178;27;20065;-77
2021/07/21 04:18:29;;;;;;;21.13;15.13;;;23.60;86.60;;;;;;4267442;27;20371;-78
2021/07/21 04:20:32;;;;;;;;;;;23.60;86.80;;;;;;4269378;27;20054;-78
2021/07/21 04:22:36;;;;;;;23.90;14.55;;;23.60;87.70;;;;;;4271019;27;20182;-76
2021/07/21 04:24:42;;;;;;;26.10;14.85;;;23.50;87.80;;;;;;4272069;27;20069;-77
2021/07/21 04:26:46;;;;;;;25.13;15.05;;;23.50;87.60;;;;;;4279590;27;20128;-79
2021/07/21 04:28:51;;;;;;;23.80;14.90;;;23.60;86.90;;;;;;4280387;27;20114;-77
2021/07/21 04:30:55;;;;;;;24.98;15.00;;;23.60;87.00;;;;;;4277789;27;20045;-78
2021/07/21 04:33:00;;;;;;;25.23;15.70;;;23.60;86.90;;;;;;4279657;27;20118;-77
2021/07/21 04:35:05;;;;;;;28.40;15.55;;;23.70;86.10;;;;;;4276636;27;20676;-74
2021/07/21 04:37:09;;;;;;;21.40;15.65;;;23.70;86.90;;;;;;4268292;27;20054;-76
2021/07/21 04:39:13;;;;;;;30.45;15.52;;;23.60;87.80;;;;;;4268803;27;20046;-79
2021/07/21 04:41:17;;;;;;;41.53;16.73;;;23.60;87.70;;;;;;4251398;27;20039;-76
2021/07/21 04:43:21;;;;;;;35.60;16.60;;;23.60;86.90;;;;;;4267650;27;20043;-78
2021/07/21 04:45:25;;;;;;;36.72;17.35;;;23.60;87.80;;;;;;4269079;27;20065;-78
2021/07/21 04:47:28;;;;;;;37.60;17.20;;;23.50;87.90;;;;;;4267807;27;20051;-80
2021/07/21 04:49:36;;;;;;;36.40;16.52;;;23.40;88.70;;;;;;4266857;27;20054;-77
2021/07/21 04:51:40;;;;;;;27.83;16.58;;;23.40;89.30;;;;;;4269468;27;20307;-78
2021/07/21 04:53:44;;;;;;;23.90;16.00;;;23.40;88.40;;;;;;4266193;27;20054;-78
2021/07/21 04:55:47;;;;;;;27.85;16.70;;;23.30;89.10;;;;;;4266593;27;20451;-79
2021/07/21 04:57:50;;;;;;;23.10;16.42;;;23.40;89.40;;;;;;4266168;27;20402;-76
2021/07/21 04:59:53;;;;;;;28.38;15.55;;;23.30;89.70;;;;;;4248115;27;20184;-78
2021/07/21 05:01:58;;;;;;;36.00;16.63;;;23.40;88.80;;;;;;4266263;27;20391;-78
2021/07/21 05:04:02;;;;;;;;;;;23.30;89.10;;;;;;4263493;27;20051;-76
2021/07/21 05:06:05;;;;;;;34.22;17.38;;;23.40;89.40;;;;;;4274054;27;20013;-80
2021/07/21 05:08:08;;;;;;;24.05;15.75;;;23.40;88.80;;;;;;4266118;27;20049;-77
2021/07/21 05:10:11;;;;;;;32.15;16.65;;;23.40;88.80;;;;;;4250425;27;20093;-77
2021/07/21 05:12:14;;;;;;;26.88;15.88;;;23.50;88.10;;;;;;4248460;27;20054;-78
2021/07/21 05:14:18;;;;;;;29.80;16.67;;;23.60;87.90;;;;;;4248590;27;20055;-79
2021/07/21 05:16:21;;;;;;;27.25;16.05;;;23.70;88.80;;;;;;4248362;27;20061;-79
2021/07/21 05:18:26;;;;;;;28.65;16.08;;;23.70;88.10;;;;;;4248045;27;20047;-78
2021/07/21 05:20:29;;;;;;;28.83;17.60;;;23.70;88.10;;;;;;4248656;27;20047;-79
2021/07/21 05:22:32;;;;;;;26.55;16.45;;;23.60;88.00;;;;;;4230467;28;20117;-78
2021/07/21 05:24:35;;;;;;;24.83;15.60;;;23.70;87.90;;;;;;4230664;28;20136;-79
2021/07/21 05:26:41;;;;;;;31.50;16.50;;;23.70;87.80;;;;;;4249726;27;20612;-78
2021/07/21 05:28:44;;;;;;;23.60;15.90;;;23.70;87.60;;;;;;4248394;27;20050;-78
2021/07/21 05:30:47;;;;;;;34.15;16.20;;;23.80;87.10;;;;;;4248891;27;20046;-78
2021/07/21 05:32:50;;;;;;;27.50;16.83;;;23.80;87.00;;;;;;4248766;27;20565;-78
2021/07/21 05:34:57;;;;;;;27.92;16.58;;;23.90;87.10;;;;;;4248084;27;20407;-77
2021/07/21 05:37:00;;;;;;;30.30;17.42;;;23.80;88.10;;;;;;4230662;28;20047;-78
2021/07/21 05:39:04;;;;;;;27.73;17.55;;;23.80;87.90;;;;;;4248305;27;20043;-76
2021/07/21 05:41:09;;;;;;;26.92;15.25;;;23.80;87.60;;;;;;4252500;27;20695;-78
2021/07/21 05:43:13;;;;;;;29.60;17.40;;;23.80;88.00;;;;;;4266611;27;20483;-77
2021/07/21 05:45:16;;;;;;;31.60;17.67;;;23.80;87.90;;;;;;4265698;27;20426;-76
2021/07/21 05:47:19;;;;;;;33.85;16.98;;;23.90;88.40;;;;;;4247910;27;20454;-76
2021/07/21 05:49:22;;;;;;;43.80;18.70;;;23.90;87.90;;;;;;4267429;27;20062;-77
2021/07/21 05:51:27;;;;;;;35.08;17.08;;;23.90;87.60;;;;;;4248368;27;20058;-79
2021/07/21 05:53:30;;;;;;;40.72;18.35;;;23.90;87.70;;;;;;4269063;27;20110;-78
2021/07/21 05:55:33;;;;;;;43.72;19.75;;;24.00;87.90;;;;;;4270491;27;20440;-77
2021/07/21 05:57:36;;;;;;;37.92;18.10;;;23.90;87.80;;;;;;4268712;27;20050;-77
2021/07/21 05:59:40;;;;;;;37.00;18.08;;;23.90;88.00;;;;;;4267158;27;20046;-77
2021/07/21 06:01:43;;;;;;;38.78;17.17;;;24.00;87.50;;;;;;4265435;27;20054;-78
2021/07/21 06:03:46;;;;;;;42.47;18.52;;;24.00;87.70;;;;;;4265183;27;20042;-79
2021/07/21 06:05:49;;;;;;;30.52;17.23;;;24.00;88.40;;;;;;4264602;27;20058;-78
2021/07/21 06:07:54;;;;;;;31.25;17.70;;;23.90;87.80;;;;;;4264801;27;20079;-78
2021/07/21 06:09:57;;;;;;;31.08;18.50;;;23.80;88.90;;;;;;4246705;27;20043;-77
2021/07/21 06:12:01;;;;;;;34.28;18.10;;;23.70;88.70;;;;;;4246712;27;20600;-78
2021/07/21 06:14:04;;;;;;;38.15;17.55;;;23.60;89.70;;;;;;4265208;27;20312;-78
2021/07/21 06:16:08;;;;;;;36.08;17.63;;;23.70;89.60;;;;;;4265268;27;21058;-79
2021/07/21 06:18:11;;;;;;;34.80;18.85;;;23.80;89.40;;;;;;4266407;27;20393;-76
2021/07/21 06:20:15;;;;;;;28.73;18.45;;;23.70;89.60;;;;;;4265810;27;20122;-78
2021/07/21 06:22:18;;;;;;;34.67;18.33;;;23.80;90.00;;;;;;4265601;27;20054;-78
2021/07/21 06:24:23;;;;;;;30.42;18.85;;;23.80;89.30;;;;;;4265348;27;20043;-79
2021/07/21 06:26:26;;;;;;;41.30;18.90;;;23.80;89.40;;;;;;4266012;27;20050;-78
2021/07/21 06:28:29;;;;;;;40.53;20.45;;;23.90;89.30;;;;;;4267988;27;20064;-79
2021/07/21 06:30:32;;;;;;;41.55;19.27;;;23.90;89.00;;;;;;4267848;27;20054;-77
2021/07/21 06:32:37;;;;;;;35.30;19.98;;;23.90;89.50;;;;;;4266967;27;20566;-78
2021/07/21 06:34:40;;;;;;;43.43;21.43;;;24.00;88.60;;;;;;4247303;27;20043;-78
2021/07/21 06:36:47;;;;;;;34.80;20.27;;;24.00;88.90;;;;;;4264392;27;20806;-78
2021/07/21 06:38:50;;;;;;;31.30;19.70;;;24.00;88.90;;;;;;4264180;27;20066;-78
2021/07/21 06:40:55;;;;;;;37.95;19.63;;;24.00;88.70;;;;;;4245559;27;20540;-77
2021/07/21 06:42:58;;;;;;;48.80;21.08;;;24.10;88.90;;;;;;4264622;27;20039;-77
2021/07/21 06:45:01;;;;;;;40.88;21.60;;;24.20;88.90;;;;;;4247249;27;20651;-77
2021/07/21 06:47:04;;;;;;;40.28;22.90;;;24.20;87.70;;;;;;4246999;27;20043;-78
2021/07/21 06:49:07;;;;;;;34.65;21.73;;;24.30;87.30;;;;;;4264922;27;20050;-76
2021/07/21 06:51:11;;;;;;;39.67;21.55;;;24.40;87.00;;;;;;4263826;27;20067;-76
2021/07/21 06:53:14;;;;;;;36.85;21.15;;;24.30;87.90;;;;;;4245577;27;20054;-77
2021/07/21 06:55:17;;;;;;;38.47;21.55;;;24.30;87.80;;;;;;4251025;27;20184;-77
2021/07/21 06:57:21;;;;;;;33.03;20.60;;;24.40;87.40;;;;;;4272650;27;20567;-77
2021/07/21 06:59:27;;;;;;;28.95;20.48;;;24.40;86.40;;;;;;4273467;27;20058;-77
2021/07/21 07:01:30;;;;;;;30.67;19.65;;;24.60;86.40;;;;;;4254502;27;20192;-77
2021/07/21 07:03:34;;;;;;;34.72;20.42;;;24.60;86.20;;;;;;4272504;27;20051;-76
2021/07/21 07:05:38;;;;;;;32.15;20.45;;;24.70;86.20;;;;;;4256072;27;20065;-78
2021/07/21 07:07:41;;;;;;;31.20;19.25;;;24.80;85.20;;;;;;4272573;27;20486;-77
2021/07/21 07:09:44;;;;;;;29.60;19.45;;;24.80;84.70;;;;;;4243456;27;20648;-76
2021/07/21 07:11:47;;;;;;;33.70;20.05;;;24.80;84.70;;;;;;4257345;27;20041;-78
2021/07/21 07:13:51;;;;;;;27.48;18.65;;;24.90;84.30;;;;;;4267519;27;20074;-78
2021/07/21 07:15:55;;;;;;;28.23;18.27;;;24.90;84.40;;;;;;4256192;27;20078;-78
2021/07/21 07:17:58;;;;;;;32.47;21.65;;;25.00;83.70;;;;;;4255516;27;20054;-79
2021/07/21 07:20:02;;;;;;;37.15;19.85;;;24.90;83.20;;;;;;4254930;27;20058;-79
2021/07/21 07:22:06;;;;;;;37.20;19.73;;;24.90;84.30;;;;;;4236609;28;20047;-76
2021/07/21 07:24:09;;;;;;;44.55;20.45;;;25.10;84.00;;;;;;4254914;27;20110;-77
2021/07/21 07:26:12;;;;;;;44.08;20.67;;;25.20;84.40;;;;;;4237090;27;20043;-79
2021/07/21 07:28:16;;;;;;;36.25;20.60;;;25.20;83.70;;;;;;4235797;28;20067;-78
2021/07/21 07:30:21;;;;;;;40.47;21.13;;;25.20;83.70;;;;;;4250655;27;20599;-77
2021/07/21 07:32:25;;;;;;;33.20;20.73;;;25.30;83.80;;;;;;4250765;27;20308;-78
2021/07/21 07:34:28;;;;;;;35.90;19.98;;;25.40;83.60;;;;;;4250183;27;20080;-76
2021/07/21 07:36:31;;;;;;;36.55;18.80;;;25.60;83.90;;;;;;4232203;28;20052;-77
2021/07/21 07:38:34;;;;;;;37.17;19.08;;;25.80;83.40;;;;;;4250225;27;20403;-77
2021/07/21 07:40:38;;;;;;;37.80;20.42;;;25.90;82.60;;;;;;4250192;27;20043;-77
2021/07/21 07:42:43;;;;;;;43.85;19.05;;;26.00;82.30;;;;;;4250369;27;20427;-77
2021/07/21 07:44:46;;;;;;;44.53;20.58;;;26.00;81.70;;;;;;4249328;27;20074;-77
2021/07/21 07:46:50;;;;;;;33.17;19.35;;;26.00;81.90;;;;;;4256858;27;20065;-76
2021/07/21 07:48:55;;;;;;;36.22;20.15;;;26.10;82.10;;;;;;4248570;27;20046;-76
2021/07/21 07:50:58;;;;;;;45.03;20.35;;;26.20;81.30;;;;;;4266920;27;20164;-79
2021/07/21 07:53:01;;;;;;;35.72;18.67;;;26.30;81.50;;;;;;4266981;27;20505;-79
2021/07/21 07:55:06;;;;;;;35.03;19.05;;;26.40;81.10;;;;;;4248140;27;20142;-77
2021/07/21 07:57:11;;;;;;;31.98;19.10;;;26.30;79.90;;;;;;4270847;27;20107;-77
2021/07/21 07:59:14;;;;;;;43.55;19.27;;;26.30;80.40;;;;;;4269609;27;20404;-79
2021/07/21 08:01:17;;;;;;;36.70;18.52;;;26.40;80.80;;;;;;4235453;28;20168;-77
2021/07/21 08:03:22;;;;;;;33.53;18.70;;;26.60;80.70;;;;;;4272256;27;20051;-77
2021/07/21 08:05:26;;;;;;;23.45;17.13;;;26.70;79.50;;;;;;4272732;27;20050;-77
2021/07/21 08:07:32;;;;;;;41.70;19.70;;;26.80;77.80;;;;;;4271620;27;20131;-76
2021/07/21 08:09:36;;;;;;;32.75;19.02;;;26.80;77.00;;;;;;4237301;27;20062;-76
2021/07/21 08:11:40;;;;;;;31.45;17.15;;;26.90;77.30;;;;;;4230708;28;20100;-75
2021/07/21 08:13:43;;;;;;;;;;;26.80;77.20;;;;;;4249346;27;20490;-76
2021/07/21 08:15:47;;;;;;;24.77;17.77;;;26.90;76.70;;;;;;4249014;27;19919;-77
2021/07/21 08:17:52;;;;;;;36.90;18.20;;;27.00;76.50;;;;;;4252537;27;20039;-77
2021/07/21 08:19:56;;;;;;;27.38;17.30;;;26.90;75.10;;;;;;4254871;27;20055;-77
2021/07/21 08:21:59;;;;;;;25.95;16.40;;;27.00;75.90;;;;;;4255810;27;20387;-76
2021/07/21 08:24:03;;;;;;;26.90;17.73;;;27.10;73.90;;;;;;4238108;28;20059;-77
2021/07/21 08:26:06;;;;;;;34.33;17.42;;;27.20;75.10;;;;;;4257233;27;20131;-76
2021/07/21 08:28:09;;;;;;;27.02;17.65;;;27.20;73.90;;;;;;4236676;27;20051;-76
2021/07/21 08:30:13;;;;;;;28.08;16.70;;;27.10;72.30;;;;;;4255067;27;20043;-77
2021/07/21 08:32:16;;;;;;;29.33;18.77;;;27.00;72.20;;;;;;4255946;27;20134;-78
2021/07/21 08:34:20;;;;;;;31.80;18.00;;;27.00;73.60;;;;;;4244158;28;20118;-78
2021/07/21 08:36:24;;;;;;;26.13;17.58;;;27.10;74.20;;;;;;4249928;27;20103;-76
2021/07/21 08:38:27;;;;;;;28.10;17.45;;;27.20;74.10;;;;;;4257087;27;20062;-76
2021/07/21 08:40:32;;;;;;;30.75;16.92;;;27.20;73.50;;;;;;4248556;27;20055;-76
2021/07/21 08:42:56;;;;;;;30.85;16.80;;;27.20;73.60;;;;;;4248123;27;20050;-78
2021/07/21 08:44:59;;;;;;;30.08;18.42;;;27.20;73.90;;;;;;4248561;27;20388;-78
2021/07/21 08:47:06;;;;;;;32.55;17.52;;;27.20;73.90;;;;;;4264989;27;20046;-77
2021/07/21 08:49:10;;;;;;;29.00;17.85;;;27.30;74.40;;;;;;4247413;27;20050;-77
2021/07/21 08:51:13;;;;;;;25.03;16.60;;;27.50;75.20;;;;;;4265439;27;20051;-76
2021/07/21 08:53:19;;;;;;;32.15;17.15;;;27.50;73.80;;;;;;4248696;27;20475;-77
2021/07/21 08:55:23;;;;;;;29.35;17.08;;;27.50;73.70;;;;;;4251382;27;20550;-79
2021/07/21 08:57:30;;;;;;;32.35;17.23;;;27.50;73.80;;;;;;4271119;27;20054;-78
2021/07/21 08:59:34;;;;;;;26.63;13.73;;;27.60;72.90;;;;;;4252885;27;20080;-75
2021/07/21 09:01:37;;;;;;;29.33;14.75;;;27.30;70.90;;;;;;4271180;27;20057;-75
2021/07/21 09:03:41;;;;;;;23.67;14.73;;;27.30;72.30;;;;;;4272621;27;20053;-78
2021/07/21 09:05:48;;;;;;;22.60;14.43;;;27.50;72.40;;;;;;4254474;27;20055;-75
2021/07/21 09:07:52;;;;;;;22.88;15.68;;;27.40;72.90;;;;;;4257326;27;20051;-76
2021/07/21 09:09:56;;;;;;;25.92;15.20;;;27.50;72.50;;;;;;4278249;27;20492;-76
2021/07/21 09:12:00;;;;;;;25.95;15.65;;;27.60;73.10;;;;;;4259888;27;20061;-78
2021/07/21 09:14:04;;;;;;;21.63;14.80;;;27.70;72.10;;;;;;4273294;27;20078;-76
2021/07/21 09:16:07;;;;;;;26.90;14.73;;;27.70;72.00;;;;;;4271624;27;20047;-77
2021/07/21 09:18:12;;;;;;;22.88;14.07;;;27.80;72.50;;;;;;4248981;27;20143;-76
2021/07/21 09:20:16;;;;;;;29.40;13.43;;;27.90;71.60;;;;;;4270519;27;20387;-77
2021/07/21 09:22:21;;;;;;;24.23;13.38;;;28.00;71.10;;;;;;4276080;27;20042;-77
2021/07/21 09:24:24;;;;;;;28.08;14.27;;;27.80;70.30;;;;;;4266082;27;20042;-77
2021/07/21 09:26:39;;;;;;;24.48;13.23;;;27.90;70.50;;;;;;4267554;27;20424;-77
2021/07/21 09:28:43;;;;;;;23.98;13.52;;;27.70;69.20;;;;;;4270389;27;20588;-79
2021/07/21 09:30:47;;;;;;;26.05;13.20;;;27.60;70.40;;;;;;4271578;27;20267;-78
2021/07/21 09:32:58;;;;;;;32.30;14.80;;;27.50;70.50;;;;;;4254402;27;20051;-77
2021/07/21 09:35:01;;;;;;;25.70;15.10;;;27.50;71.00;;;;;;4273148;27;20421;-76
2021/07/21 09:37:07;;;;;;;20.90;13.50;;;27.70;70.30;;;;;;4274659;27;20065;-77
2021/07/21 09:39:11;;;;;;;27.65;14.05;;;27.80;70.50;;;;;;4276111;27;20086;-78
2021/07/21 09:41:16;;;;;;;24.73;14.32;;;28.00;70.60;;;;;;4277698;27;20103;-78
2021/07/21 09:43:23;;;;;;;21.10;13.95;;;28.10;70.30;;;;;;4260680;27;20609;-77
2021/07/21 09:45:26;;;;;;;24.25;13.73;;;28.10;68.70;;;;;;4271025;27;20129;-77
2021/07/21 09:47:29;;;;;;;22.13;12.60;;;28.10;69.00;;;;;;4267993;27;20054;-81
2021/07/21 09:49:32;;;;;;;29.60;13.90;;;28.20;69.00;;;;;;4265635;27;20054;-77
2021/07/21 09:51:38;;;;;;;21.63;14.45;;;28.20;69.10;;;;;;4265742;27;20057;-77
2021/07/21 09:53:45;;;;;;;17.75;13.30;;;28.20;68.50;;;;;;4246276;27;20053;-77
2021/07/21 09:55:50;;;;;;;24.40;13.15;;;28.20;68.60;;;;;;4264170;27;20418;-78
2021/07/21 09:57:59;;;;;;;21.45;13.73;;;28.40;68.30;;;;;;4245935;27;20054;-78
2021/07/21 10:00:19;;;;;;;20.70;13.13;;;28.50;68.10;;;;;;4265814;27;20406;-80
2021/07/21 10:02:25;;;;;;;21.55;12.88;;;28.60;68.80;;;;;;4270145;27;20046;-77
2021/07/21 10:04:33;;;;;;;21.67;11.75;;;28.80;67.50;;;;;;4250643;27;20126;-77
2021/07/21 10:06:38;;;;;;;19.77;12.40;;;28.50;67.30;;;;;;4252227;27;20110;-75
2021/07/21 10:08:43;;;;;;;22.65;12.65;;;28.50;67.60;;;;;;4269583;27;20051;-77
2021/07/21 10:10:46;;;;;;;;;;;28.50;67.30;;;;;;4256612;27;20047;-75
2021/07/21 10:13:00;;;;;;;18.30;11.35;;;28.70;67.30;;;;;;4257840;27;20158;-76
2021/07/21 10:15:04;;;;;;;15.93;11.52;;;28.40;66.30;;;;;;4255554;27;20471;-80
2021/07/21 10:17:15;;;;;;;21.42;11.60;;;28.50;66.60;;;;;;4251009;27;20403;-77
2021/07/21 10:19:22;;;;;;;19.38;11.30;;;28.70;67.30;;;;;;4231114;28;20050;-76
2021/07/21 10:21:25;;;;;;;24.95;10.00;;;28.90;66.10;;;;;;4251031;27;20039;-77
2021/07/21 10:23:28;;;;;;;20.10;10.98;;;28.80;65.30;;;;;;4232826;28;20051;-76
2021/07/21 10:25:32;;;;;;;22.08;10.35;;;28.60;65.10;;;;;;4249386;27;20172;-77
2021/07/21 10:27:35;;;;;;;23.05;10.60;;;28.60;65.30;;;;;;4250605;27;20110;-76
2021/07/21 10:29:38;;;;;;;18.30;11.95;;;28.60;65.90;;;;;;4249270;27;20055;-76
2021/07/21 10:31:42;;;;;;;21.63;11.57;;;28.60;65.90;;;;;;4248668;27;20043;-76
2021/07/21 10:33:47;;;;;;;18.17;10.90;;;28.70;66.00;;;;;;4259305;27;20117;-78
2021/07/21 10:35:52;;;;;;;15.93;10.57;;;28.70;66.10;;;;;;4265749;27;20442;-76
2021/07/21 10:37:56;;;;;;;17.98;11.45;;;28.80;65.90;;;;;;4249505;27;20047;-76